createdAt,value
2018-07-04T00:01:20.902Z,10.73
2018-07-04T00:04:06.839Z,7.70
2018-07-04T00:06:52.955Z,6.80
2018-07-04T00:09:38.155Z,7.93
2018-07-04T00:12:23.601Z,7.80
2018-07-04T00:15:08.979Z,13.13
2018-07-04T00:17:54.538Z,8.53
2018-07-04T00:20:40.486Z,6.50
2018-07-04T00:23:25.794Z,10.50
2018-07-04T00:26:11.071Z,9.77
2018-07-04T00:28:56.510Z,10.93
2018-07-04T00:31:42.089Z,7.13
2018-07-04T00:34:27.411Z,6.83
2018-07-04T00:37:12.635Z,11.40
2018-07-04T00:39:58.751Z,6.13
2018-07-04T00:42:44.214Z,11.37
2018-07-04T00:45:29.684Z,9.67
2018-07-04T00:48:15.722Z,10.73
2018-07-04T00:51:01.848Z,7.77
2018-07-04T00:53:47.194Z,8.93
2018-07-04T00:56:32.503Z,7.93
2018-07-04T00:59:17.754Z,8.97
2018-07-04T01:02:03.128Z,11.13
2018-07-04T01:04:48.568Z,9.57
2018-07-04T01:07:33.784Z,7.47
2018-07-04T01:10:14.307Z,8.13
2018-07-04T01:12:59.574Z,8.20
2018-07-04T01:15:44.832Z,10.07
2018-07-04T01:18:31.127Z,6.97
2018-07-04T01:21:16.468Z,12.27
2018-07-04T01:24:01.975Z,8.90
2018-07-04T01:26:47.314Z,7.57
2018-07-04T01:29:32.567Z,8.47
2018-07-04T01:32:18.093Z,13.23
2018-07-04T01:35:04.139Z,8.47
2018-07-04T01:37:49.618Z,9.00
2018-07-04T01:40:35.157Z,8.63
2018-07-04T01:43:20.568Z,9.30
2018-07-04T01:46:05.948Z,10.87
2018-07-04T01:48:52.143Z,8.80
2018-07-04T01:51:31.736Z,8.30
2018-07-04T01:54:17.066Z,8.17
2018-07-04T01:57:02.529Z,10.07
2018-07-04T01:59:48.009Z,9.27
2018-07-04T02:02:33.593Z,12.60
2018-07-04T02:05:19.001Z,11.73
2018-07-04T02:08:04.434Z,12.10
2018-07-04T02:10:49.778Z,6.70
2018-07-04T02:13:35.231Z,6.23
2018-07-04T02:16:20.578Z,7.37
2018-07-04T02:19:06.011Z,9.10
2018-07-04T02:21:51.238Z,11.90
2018-07-04T02:24:36.763Z,7.23
2018-07-04T02:27:22.164Z,7.97
2018-07-04T02:30:08.428Z,8.93
2018-07-04T02:32:53.808Z,6.27
2018-07-04T02:35:39.198Z,8.97
2018-07-04T02:38:24.685Z,9.47
2018-07-04T02:41:10.099Z,9.27
2018-07-04T02:43:55.363Z,10.30
2018-07-04T02:46:40.905Z,10.97
2018-07-04T02:49:26.205Z,16.50
2018-07-04T02:52:11.612Z,9.97
2018-07-04T02:54:56.944Z,13.70
2018-07-04T02:57:42.330Z,8.27
2018-07-04T03:00:27.714Z,8.57
2018-07-04T03:03:13.011Z,7.40
2018-07-04T03:05:58.482Z,9.60
2018-07-04T03:08:43.668Z,8.40
2018-07-04T03:11:29.097Z,9.13
2018-07-04T03:14:14.554Z,8.17
2018-07-04T03:16:59.917Z,11.63
2018-07-04T03:19:45.392Z,8.37
2018-07-04T03:22:31.643Z,9.83
2018-07-04T03:25:17.120Z,9.57
2018-07-04T03:28:02.562Z,10.00
2018-07-04T03:30:48.090Z,10.27
2018-07-04T03:33:33.517Z,9.83
2018-07-04T03:36:18.710Z,13.10
2018-07-04T03:39:05.093Z,10.70
2018-07-04T03:41:50.827Z,7.10
2018-07-04T03:44:36.489Z,11.10
2018-07-04T03:47:22.089Z,13.63
2018-07-04T03:50:07.679Z,13.40
2018-07-04T03:52:52.938Z,10.47
2018-07-04T07:33:50.606Z,8.33
2018-07-04T07:36:35.654Z,8.53
2018-07-04T07:39:21.549Z,7.63
2018-07-04T07:42:06.878Z,10.47
2018-07-04T07:44:52.910Z,6.37
2018-07-04T07:47:38.377Z,6.43
2018-07-04T07:50:23.710Z,7.57
2018-07-04T07:53:08.908Z,8.63
2018-07-04T07:55:54.245Z,11.03
2018-07-04T07:58:39.600Z,9.77
2018-07-04T08:01:24.835Z,8.63
2018-07-04T08:04:10.246Z,8.93
2018-07-04T08:06:55.446Z,7.10
2018-07-04T08:09:35.048Z,9.50
2018-07-04T08:12:20.352Z,7.60
2018-07-04T08:15:05.725Z,6.73
2018-07-04T08:17:50.748Z,9.90
2018-07-04T08:20:36.040Z,8.57
2018-07-04T08:23:21.052Z,15.43
2018-07-04T08:26:06.242Z,6.43
2018-07-04T08:28:51.861Z,5.90
2018-07-04T08:31:37.060Z,9.00
2018-07-04T08:34:22.193Z,7.67
2018-07-04T08:37:07.376Z,7.67
2018-07-04T08:39:52.576Z,7.17
2018-07-04T08:42:37.800Z,5.50
2018-07-04T08:45:23.066Z,8.60
2018-07-04T08:48:08.442Z,5.53
2018-07-04T08:50:53.599Z,8.03
2018-07-04T08:53:38.829Z,7.47
2018-07-04T08:56:23.837Z,10.77
2018-07-04T08:59:08.995Z,7.97
2018-07-04T09:01:54.199Z,7.70
2018-07-04T09:04:39.485Z,6.20
2018-07-04T09:07:24.676Z,11.40
2018-07-04T09:10:09.888Z,8.03
2018-07-04T09:12:55.209Z,9.37
2018-07-04T09:15:40.514Z,5.17
2018-07-04T09:18:25.685Z,7.97
2018-07-04T09:21:10.893Z,8.97
2018-07-04T09:23:56.040Z,6.70
2018-07-04T09:26:41.310Z,7.53
2018-07-04T09:29:26.781Z,9.67
2018-07-04T09:32:12.081Z,5.60
2018-07-04T09:34:57.281Z,4.30
2018-07-04T09:37:42.546Z,3.93
2018-07-04T09:40:27.936Z,4.60
2018-07-04T09:43:13.025Z,7.20
2018-07-04T09:45:58.391Z,7.27
2018-07-04T09:48:44.308Z,6.27
2018-07-04T09:51:29.599Z,4.90
2018-07-04T09:54:14.937Z,4.97
2018-07-04T09:57:00.216Z,4.93
2018-07-04T09:59:45.450Z,5.60
2018-07-04T10:02:30.785Z,7.17
2018-07-04T10:05:16.024Z,6.20
2018-07-04T10:08:01.447Z,6.10
2018-07-04T10:10:46.655Z,8.43
2018-07-04T10:13:32.029Z,7.30
2018-07-04T10:16:17.357Z,6.17
2018-07-04T10:19:02.777Z,10.90
2018-07-04T10:21:47.923Z,8.43
2018-07-04T10:24:33.302Z,6.07
2018-07-04T10:27:18.711Z,8.40
2018-07-04T10:30:03.961Z,5.30
2018-07-04T10:32:49.308Z,7.77
2018-07-04T10:35:34.533Z,8.80
2018-07-04T10:38:19.786Z,5.23
2018-07-04T10:41:05.090Z,6.27
2018-07-04T10:43:50.315Z,9.30
2018-07-04T10:46:35.661Z,4.90
2018-07-04T10:49:20.961Z,6.57
2018-07-04T10:52:06.198Z,6.43
2018-07-04T10:54:51.649Z,9.33
2018-07-04T10:57:36.945Z,10.30
2018-07-04T11:00:22.065Z,5.40
2018-07-04T11:03:07.758Z,8.87
2018-07-04T11:05:53.762Z,6.23
2018-07-04T11:08:38.966Z,6.00
2018-07-04T11:11:24.145Z,5.07
2018-07-04T11:14:09.278Z,5.90
2018-07-04T11:16:54.731Z,4.93
2018-07-04T11:19:39.983Z,8.33
2018-07-04T11:22:25.340Z,6.90
2018-07-04T11:25:10.196Z,7.00
2018-07-04T11:27:55.224Z,5.07
2018-07-04T11:30:41.326Z,9.23
2018-07-04T11:33:26.568Z,6.40
2018-07-04T11:43:30.821Z,8.10
2018-07-04T11:45:58.611Z,8.37
2018-07-04T11:48:25.224Z,6.30
2018-07-04T11:50:52.938Z,6.20
2018-07-04T11:53:19.618Z,5.67
2018-07-04T11:55:46.175Z,5.93
2018-07-04T11:58:13.362Z,7.57
2018-07-04T12:00:39.989Z,6.63
2018-07-04T12:03:19.502Z,5.03
2018-07-04T12:06:04.786Z,6.83
2018-07-04T12:08:31.419Z,5.80
2018-07-04T12:10:58.032Z,7.37
2018-07-04T12:13:25.737Z,4.87
2018-07-04T12:15:52.610Z,5.23
2018-07-04T12:18:19.199Z,5.67
2018-07-04T12:20:45.967Z,5.10
2018-07-04T12:23:13.050Z,5.20
2018-07-04T12:25:40.541Z,4.97
2018-07-04T12:28:07.281Z,5.13
2018-07-04T12:30:34.151Z,5.00
2018-07-04T12:33:01.186Z,5.67
2018-07-04T12:35:27.800Z,5.33
2018-07-04T12:37:54.375Z,4.83
2018-07-04T12:40:20.945Z,4.93
2018-07-04T12:42:47.680Z,4.57
2018-07-04T12:45:14.360Z,6.73
2018-07-04T12:47:40.972Z,5.93
2018-07-04T12:50:26.693Z,6.27
2018-07-04T12:52:53.621Z,4.83
2018-07-04T12:55:40.124Z,7.53
2018-07-04T12:58:25.375Z,9.63
2018-07-04T13:01:10.905Z,6.43
2018-07-04T13:03:50.292Z,10.80
2018-07-04T13:06:35.748Z,6.53
2018-07-04T13:09:15.143Z,6.13
2018-07-04T13:12:00.402Z,7.63
2018-07-04T13:14:45.611Z,6.90
2018-07-04T13:17:30.745Z,7.27
2018-07-04T13:20:15.933Z,5.60
2018-07-04T13:23:01.213Z,4.17
2018-07-04T13:25:46.650Z,3.93
2018-07-04T13:28:31.758Z,9.80
2018-07-04T13:31:17.052Z,5.70
2018-07-04T13:33:56.495Z,6.90
2018-07-04T13:36:41.844Z,5.37
2018-07-04T13:39:27.194Z,5.47
2018-07-04T13:42:12.397Z,5.53
2018-07-04T13:44:51.972Z,6.67
2018-07-04T13:47:37.310Z,5.30
2018-07-04T13:50:22.603Z,7.00
2018-07-04T13:53:07.933Z,5.80
2018-07-04T13:55:53.224Z,7.10
2018-07-04T14:11:15.193Z,5.07
2018-07-04T14:13:54.793Z,6.43
2018-07-04T14:16:35.172Z,3.73
2018-07-04T14:19:14.608Z,6.43
2018-07-04T14:21:54.023Z,6.63
2018-07-04T14:24:33.291Z,7.13
2018-07-04T14:27:12.768Z,4.47
2018-07-04T14:29:52.186Z,7.43
2018-07-04T14:32:31.477Z,3.77
2018-07-04T14:35:10.829Z,5.87
2018-07-04T14:37:50.117Z,6.50
2018-07-04T14:40:29.592Z,5.67
2018-07-04T14:43:09.002Z,7.23
2018-07-04T14:45:48.374Z,6.13
2018-07-04T14:48:27.713Z,6.97
2018-07-04T14:51:07.125Z,7.33
2018-07-04T14:53:46.532Z,6.00
2018-07-04T14:56:25.911Z,7.20
2018-07-04T14:59:05.410Z,8.07
2018-07-04T15:01:44.894Z,7.73
2018-07-04T15:04:24.556Z,5.67
2018-07-04T15:07:04.134Z,4.53
2018-07-04T15:09:43.885Z,7.87
2018-07-04T15:12:23.419Z,9.07
2018-07-04T15:15:02.958Z,9.10
2018-07-04T15:17:42.518Z,7.17
2018-07-04T15:20:22.222Z,4.23
2018-07-04T15:23:01.854Z,4.80
2018-07-04T15:25:41.611Z,7.73
2018-07-04T15:28:21.121Z,6.00
2018-07-04T15:31:00.534Z,9.73
2018-07-04T15:33:39.990Z,5.77
2018-07-04T15:36:19.459Z,5.37
2018-07-04T15:38:59.192Z,4.63
2018-07-04T15:41:38.511Z,7.00
2018-07-04T15:44:17.803Z,4.27
2018-07-04T15:46:57.230Z,3.97
2018-07-04T15:49:36.627Z,3.57
2018-07-04T15:52:16.033Z,4.57
2018-07-04T15:54:55.264Z,3.47
2018-07-04T15:57:34.631Z,4.03
2018-07-04T16:00:13.906Z,5.17
2018-07-04T16:02:53.163Z,3.53
2018-07-04T16:05:32.511Z,3.60
2018-07-04T16:08:12.019Z,3.23
2018-07-04T16:10:51.438Z,7.63
2018-07-04T16:13:30.701Z,3.23
2018-07-04T16:16:10.098Z,4.87
2018-07-04T16:18:49.476Z,2.70
2018-07-04T16:21:28.837Z,2.97
2018-07-04T16:24:08.243Z,3.93
2018-07-04T16:26:47.634Z,4.33
2018-07-04T16:29:27.012Z,4.07
2018-07-04T16:32:06.639Z,4.50
2018-07-04T16:34:46.132Z,3.00
2018-07-04T16:37:25.387Z,2.37
2018-07-04T16:40:04.819Z,3.43
2018-07-04T16:42:44.220Z,5.80
2018-07-04T16:45:23.721Z,3.53
2018-07-04T16:48:03.070Z,2.30
2018-07-04T16:50:42.514Z,3.83
2018-07-04T16:53:21.980Z,6.20
2018-07-04T16:56:01.499Z,2.73
2018-07-04T16:58:40.823Z,5.70
2018-07-04T17:01:20.169Z,2.50
2018-07-04T17:03:59.460Z,3.23
2018-07-04T17:06:38.870Z,3.67
2018-07-04T17:09:18.200Z,2.30
2018-07-04T17:11:57.520Z,3.97
2018-07-04T17:14:36.932Z,3.27
2018-07-04T17:17:16.329Z,2.37
2018-07-04T17:19:55.697Z,3.83
2018-07-04T17:22:35.106Z,2.97
2018-07-04T17:25:14.446Z,3.27
2018-07-04T17:27:53.980Z,2.70
2018-07-04T17:30:33.401Z,3.97
2018-07-04T17:33:12.929Z,4.17
2018-07-04T17:35:52.280Z,3.70
2018-07-04T17:38:31.622Z,2.83
2018-07-04T17:41:10.953Z,3.33
2018-07-04T17:43:50.326Z,4.97
2018-07-04T17:46:29.698Z,4.07
2018-07-04T17:49:09.145Z,6.67
2018-07-04T17:51:48.458Z,4.47
2018-07-04T17:54:27.900Z,2.57
2018-07-04T17:57:07.163Z,3.10
2018-07-04T17:59:46.555Z,3.27
2018-07-04T18:02:25.893Z,3.03
2018-07-04T18:05:05.308Z,3.43
2018-07-04T18:07:44.785Z,5.40
2018-07-04T18:10:24.103Z,4.57
2018-07-04T18:13:03.420Z,4.17
2018-07-04T18:15:42.706Z,5.93
2018-07-04T18:18:22.137Z,4.00
2018-07-04T18:24:19.954Z,3.40
2018-07-04T18:27:05.565Z,5.83
2018-07-04T18:29:50.917Z,3.73
2018-07-04T18:32:36.661Z,4.20
2018-07-04T18:35:21.863Z,3.37
2018-07-04T18:38:06.974Z,3.53
2018-07-04T18:40:52.270Z,4.17
2018-07-04T18:43:37.483Z,4.40
2018-07-04T18:46:22.833Z,3.53
2018-07-04T18:49:08.015Z,3.73
2018-07-04T18:51:53.278Z,3.33
2018-07-04T18:54:38.342Z,3.20
2018-07-04T18:57:23.685Z,4.90
2018-07-04T19:00:09.657Z,5.10
2018-07-04T19:02:55.139Z,3.83
2018-07-04T19:05:40.606Z,4.93
2018-07-04T19:08:26.149Z,3.37
2018-07-04T19:11:11.431Z,5.30
2018-07-04T19:13:56.720Z,5.50
2018-07-04T19:16:42.841Z,2.70
2018-07-04T19:19:27.834Z,5.30
2018-07-04T19:22:13.039Z,6.80
2018-07-04T19:24:58.278Z,3.20
2018-07-04T19:27:43.579Z,6.90
2018-07-04T19:30:28.865Z,4.10
2018-07-04T19:33:14.096Z,4.60
2018-07-04T19:35:59.124Z,5.30
2018-07-04T19:38:44.186Z,3.17
2018-07-04T19:41:29.366Z,4.43
2018-07-04T19:44:14.517Z,3.17
2018-07-04T19:46:59.588Z,3.70
2018-07-04T19:49:44.735Z,5.10
2018-07-04T19:52:29.821Z,5.27
2018-07-04T19:55:14.946Z,4.07
2018-07-04T19:58:00.094Z,6.10
2018-07-04T20:00:45.163Z,3.60
2018-07-04T20:03:30.207Z,4.40
2018-07-04T20:06:15.365Z,5.67
2018-07-04T20:09:00.555Z,4.70
2018-07-04T20:11:45.569Z,2.90
2018-07-04T20:14:30.851Z,4.83
2018-07-04T20:17:16.081Z,4.07
2018-07-04T20:20:01.244Z,3.03
2018-07-04T20:22:46.420Z,4.10
2018-07-04T20:25:31.715Z,6.80
2018-07-04T20:28:18.202Z,4.53
2018-07-04T20:31:03.328Z,5.67
2018-07-04T20:33:48.644Z,3.77
2018-07-04T20:36:33.851Z,5.27
2018-07-04T20:39:19.063Z,5.20
2018-07-04T20:42:04.309Z,3.87
2018-07-04T20:44:49.423Z,3.90
2018-07-04T20:47:34.531Z,4.00
2018-07-04T20:50:19.487Z,5.00
2018-07-04T20:53:04.507Z,4.67
2018-07-04T20:55:49.716Z,5.37
2018-07-04T20:58:34.993Z,4.30
2018-07-04T21:01:20.174Z,4.90
2018-07-04T21:04:05.416Z,4.00
2018-07-04T21:06:50.595Z,4.80
2018-07-04T21:09:35.882Z,7.63
2018-07-04T21:12:20.848Z,6.00
2018-07-04T21:15:05.981Z,5.60
2018-07-04T21:17:51.055Z,6.23
2018-07-04T21:20:36.261Z,6.27
2018-07-04T21:23:21.561Z,5.17
2018-07-04T21:26:06.759Z,4.20
2018-07-04T21:28:51.836Z,5.03
2018-07-04T21:31:37.002Z,5.87
2018-07-04T21:34:22.279Z,3.90
2018-07-04T21:37:08.347Z,5.73
2018-07-04T21:39:53.719Z,4.03
2018-07-04T21:42:38.775Z,6.07
2018-07-04T21:45:24.585Z,3.90
2018-07-04T21:48:09.795Z,4.70
2018-07-04T21:50:54.885Z,6.13
2018-07-04T21:53:40.038Z,5.63
2018-07-04T21:56:25.110Z,4.40
2018-07-04T21:59:10.263Z,5.60
2018-07-04T22:01:55.447Z,4.53
2018-07-04T22:04:40.602Z,5.20
2018-07-04T22:07:25.709Z,4.67
2018-07-04T22:10:10.790Z,5.87
2018-07-04T22:12:55.801Z,5.23
2018-07-04T22:15:40.933Z,5.57
2018-07-04T22:18:26.130Z,5.67
2018-07-04T22:21:11.221Z,5.10
2018-07-04T22:23:59.803Z,3.83
2018-07-04T22:26:44.977Z,5.23
2018-07-04T22:29:30.816Z,3.70
2018-07-04T22:32:16.030Z,5.27
2018-07-04T22:35:01.282Z,7.20
2018-07-04T22:37:46.468Z,4.90
2018-07-04T22:40:31.535Z,5.63
2018-07-04T22:43:16.763Z,6.03
2018-07-04T22:46:01.861Z,6.63
2018-07-04T22:48:46.994Z,7.10
2018-07-04T22:51:32.072Z,7.53
2018-07-04T22:54:17.273Z,7.47
2018-07-04T22:57:02.970Z,4.63
2018-07-04T22:59:48.178Z,6.00
2018-07-04T23:02:33.359Z,5.47
2018-07-04T23:05:18.461Z,6.30
2018-07-04T23:08:03.617Z,5.57
2018-07-04T23:10:48.885Z,6.33
2018-07-04T23:13:34.048Z,6.37
2018-07-04T23:16:19.466Z,7.73
2018-07-04T23:19:04.533Z,6.27
2018-07-04T23:21:49.856Z,7.73
2018-07-04T23:24:34.893Z,8.57
2018-07-04T23:27:20.085Z,6.03
2018-07-04T23:30:05.057Z,5.17
2018-07-04T23:32:50.438Z,5.63
2018-07-04T23:35:35.665Z,6.83
2018-07-04T23:38:20.838Z,5.53
2018-07-04T23:41:05.823Z,5.90
2018-07-04T23:43:50.924Z,7.03
2018-07-04T23:46:36.204Z,6.97
2018-07-04T23:49:21.288Z,5.33
2018-07-04T23:52:06.461Z,6.97
2018-07-04T23:54:51.729Z,7.53
2018-07-04T23:57:37.056Z,7.00
